createdAt,value
2018-11-03T00:02:33.563Z,15.09
2018-11-03T00:05:09.180Z,15.22
2018-11-03T00:07:45.567Z,15.02
2018-11-03T00:10:21.103Z,14.71
2018-11-03T00:12:56.813Z,14.28
2018-11-03T00:15:32.488Z,14.25
2018-11-03T00:18:08.728Z,14.11
2018-11-03T00:20:44.493Z,13.91
2018-11-03T00:23:20.464Z,13.98
2018-11-03T00:25:56.508Z,13.73
2018-11-03T00:28:31.998Z,13.66
2018-11-03T00:31:08.498Z,13.60
2018-11-03T00:33:44.053Z,13.54
2018-11-03T00:36:19.504Z,13.57
2018-11-03T00:38:54.953Z,13.61
2018-11-03T00:41:30.590Z,13.57
2018-11-03T00:44:07.649Z,13.62
2018-11-03T00:46:43.194Z,13.55
2018-11-03T00:49:19.029Z,13.63
2018-11-03T00:51:54.550Z,13.64
2018-11-03T00:54:30.432Z,13.63
2018-11-03T00:57:06.095Z,13.58
2018-11-03T00:59:41.880Z,13.53
2018-11-03T01:02:17.271Z,13.53
2018-11-03T01:04:52.925Z,13.50
2018-11-03T01:07:28.442Z,13.48
2018-11-03T01:10:04.097Z,13.45
2018-11-03T01:12:40.299Z,13.46
2018-11-03T01:15:16.947Z,13.47
2018-11-03T01:17:53.088Z,13.37
2018-11-03T01:20:28.712Z,13.39
2018-11-03T01:23:04.268Z,13.40
2018-11-03T01:25:39.885Z,13.42
2018-11-03T01:28:15.463Z,13.28
2018-11-03T01:30:51.217Z,13.31
2018-11-03T01:33:26.843Z,13.23
2018-11-03T01:36:02.531Z,13.35
2018-11-03T01:38:38.198Z,13.35
2018-11-03T01:41:13.940Z,13.21
2018-11-03T01:43:49.795Z,13.15
2018-11-03T01:46:25.464Z,13.16
2018-11-03T01:49:01.245Z,13.17
2018-11-03T01:51:36.973Z,13.14
2018-11-03T01:54:12.931Z,13.11
2018-11-03T01:56:48.785Z,13.14
2018-11-03T01:59:24.256Z,13.12
2018-11-03T02:02:00.265Z,13.05
2018-11-03T02:04:35.761Z,13.09
2018-11-03T02:07:11.308Z,13.00
2018-11-03T02:09:47.337Z,12.97
2018-11-03T02:12:23.008Z,13.02
2018-11-03T02:14:59.013Z,12.99
2018-11-03T02:17:34.883Z,13.01
2018-11-03T02:20:11.196Z,12.64
2018-11-03T02:22:46.745Z,12.96
2018-11-03T02:25:22.622Z,12.94
2018-11-03T02:27:58.400Z,12.98
2018-11-03T02:30:34.136Z,12.97
2018-11-03T02:33:09.734Z,13.01
2018-11-03T02:35:45.357Z,12.99
2018-11-03T02:38:21.027Z,12.97
2018-11-03T02:40:56.594Z,12.97
2018-11-03T02:43:32.645Z,12.98
2018-11-03T02:46:08.346Z,12.98
2018-11-03T02:48:43.906Z,13.00
2018-11-03T02:51:19.555Z,13.01
2018-11-03T02:53:54.964Z,13.13
2018-11-03T02:56:30.732Z,13.11
2018-11-03T02:59:06.802Z,13.05
2018-11-03T03:01:42.315Z,13.05
2018-11-03T03:04:18.062Z,13.08
2018-11-03T03:06:53.500Z,13.04
2018-11-03T03:09:29.136Z,12.97
2018-11-03T03:12:05.435Z,13.02
2018-11-03T03:14:41.404Z,13.01
2018-11-03T03:17:17.105Z,12.99
2018-11-03T03:19:52.823Z,12.93
2018-11-03T03:22:28.716Z,12.95
2018-11-03T03:25:04.586Z,12.96
2018-11-03T03:27:40.975Z,12.99
2018-11-03T03:30:17.305Z,13.02
2018-11-03T03:32:53.458Z,12.99
2018-11-03T03:35:29.016Z,12.91
2018-11-03T03:38:04.820Z,12.99
2018-11-03T03:40:40.318Z,12.95
2018-11-03T03:43:15.753Z,12.90
2018-11-03T03:45:51.509Z,12.96
2018-11-03T03:48:27.153Z,12.96
2018-11-03T03:51:02.763Z,12.91
2018-11-03T03:53:38.242Z,12.94
2018-11-03T03:56:13.719Z,12.97
2018-11-03T03:58:49.448Z,12.97
2018-11-03T04:01:25.516Z,12.91
2018-11-03T04:04:01.873Z,13.08
2018-11-03T04:06:37.352Z,13.03
2018-11-03T04:09:13.330Z,13.03
2018-11-03T04:11:48.778Z,12.97
2018-11-03T04:14:24.183Z,12.89
2018-11-03T04:16:59.883Z,12.92
2018-11-03T04:19:35.347Z,12.85
2018-11-03T04:22:10.884Z,12.83
2018-11-03T04:24:46.335Z,12.90
2018-11-03T04:27:22.084Z,12.90
2018-11-03T04:29:57.725Z,12.94
2018-11-03T04:32:33.566Z,12.98
2018-11-03T04:35:10.243Z,13.04
2018-11-03T04:37:45.990Z,12.95
2018-11-03T04:40:21.457Z,12.92
2018-11-03T04:42:56.895Z,13.03
2018-11-03T04:45:32.851Z,13.00
2018-11-03T04:48:08.556Z,13.03
2018-11-03T04:50:44.210Z,12.93
2018-11-03T04:53:19.831Z,12.91
2018-11-03T04:55:55.670Z,12.92
2018-11-03T04:58:31.293Z,12.98
2018-11-03T05:01:07.103Z,12.93
2018-11-03T05:03:42.790Z,12.99
2018-11-03T05:06:18.335Z,12.87
2018-11-03T05:08:53.791Z,12.91
2018-11-03T05:11:29.650Z,12.85
2018-11-03T05:14:06.202Z,12.80
2018-11-03T05:16:41.690Z,12.92
2018-11-03T05:19:17.421Z,12.87
2018-11-03T05:21:53.498Z,12.85
2018-11-03T05:24:29.248Z,12.83
2018-11-03T05:27:05.028Z,12.22
2018-11-03T05:29:40.449Z,12.82
2018-11-03T05:32:16.022Z,12.82
2018-11-03T05:34:51.636Z,12.78
2018-11-03T05:37:27.162Z,12.85
2018-11-03T05:40:02.862Z,11.60
2018-11-03T05:42:39.363Z,12.94
2018-11-03T05:45:15.293Z,12.84
2018-11-03T05:47:50.716Z,12.97
2018-11-03T05:50:26.452Z,12.96
2018-11-03T05:53:02.124Z,12.94
2018-11-03T05:55:37.930Z,12.94
2018-11-03T05:58:13.525Z,12.97
2018-11-03T06:00:49.197Z,12.91
2018-11-03T06:03:24.604Z,12.95
2018-11-03T06:06:00.087Z,12.95
2018-11-03T06:08:35.599Z,12.86
2018-11-03T06:11:11.589Z,11.07
2018-11-03T06:13:47.344Z,12.87
2018-11-03T06:16:23.184Z,12.84
2018-11-03T06:18:58.930Z,10.06
2018-11-03T06:21:34.879Z,12.77
2018-11-03T06:24:10.801Z,12.78
2018-11-03T06:26:46.777Z,12.87
2018-11-03T06:29:22.761Z,12.82
2018-11-03T06:31:58.603Z,12.85
2018-11-03T06:34:34.544Z,12.88
2018-11-03T06:37:10.367Z,12.92
2018-11-03T06:39:46.390Z,12.91
2018-11-03T06:42:21.950Z,12.85
2018-11-03T06:44:57.472Z,12.87
2018-11-03T06:47:33.386Z,12.86
2018-11-03T06:50:09.429Z,12.92
2018-11-03T06:52:45.146Z,12.85
2018-11-03T06:55:20.571Z,12.87
2018-11-03T06:57:56.202Z,12.92
2018-11-03T07:00:31.813Z,11.96
2018-11-03T07:03:07.885Z,12.77
2018-11-03T07:05:44.228Z,13.04
2018-11-03T07:08:19.818Z,13.02
2018-11-03T07:10:55.732Z,13.07
2018-11-03T07:13:31.426Z,13.13
2018-11-03T07:16:08.332Z,13.19
2018-11-03T07:18:44.119Z,13.24
2018-11-03T07:21:19.955Z,13.21
2018-11-03T07:23:55.954Z,13.26
2018-11-03T07:26:32.442Z,13.25
2018-11-03T07:29:08.432Z,13.37
2018-11-03T07:31:44.486Z,13.43
2018-11-03T07:34:20.591Z,13.61
2018-11-03T07:36:56.168Z,13.58
2018-11-03T07:39:31.622Z,13.55
2018-11-03T07:42:07.680Z,13.37
2018-11-03T07:44:43.554Z,13.24
2018-11-03T07:47:19.416Z,13.13
2018-11-03T07:49:55.838Z,13.33
2018-11-03T07:52:31.469Z,13.41
2018-11-03T07:55:08.064Z,13.47
2018-11-03T07:57:43.988Z,13.58
2018-11-03T08:00:19.720Z,13.70
2018-11-03T08:02:55.457Z,13.67
2018-11-03T08:05:32.481Z,13.73
2018-11-03T08:08:07.965Z,13.62
2018-11-03T08:10:51.544Z,13.70
2018-11-03T08:13:27.169Z,13.69
2018-11-03T08:16:03.273Z,13.71
2018-11-03T08:18:39.838Z,13.93
2018-11-03T08:21:15.418Z,13.84
2018-11-03T08:23:51.163Z,13.89
2018-11-03T08:26:26.997Z,13.99
2018-11-03T08:29:02.429Z,14.07
2018-11-03T08:31:38.567Z,14.09
2018-11-03T08:34:14.280Z,14.43
2018-11-03T08:36:49.931Z,14.53
2018-11-03T08:39:25.400Z,14.20
2018-11-03T08:42:01.525Z,14.17
2018-11-03T08:44:37.229Z,14.26
2018-11-03T08:47:13.789Z,14.37
2018-11-03T08:49:49.404Z,14.86
2018-11-03T08:52:24.850Z,14.94
2018-11-03T08:55:00.590Z,14.88
2018-11-03T08:57:36.241Z,14.41
2018-11-03T09:00:13.929Z,14.34
2018-11-03T09:02:49.751Z,14.29
2018-11-03T09:05:25.756Z,14.58
2018-11-03T09:08:01.624Z,14.72
2018-11-03T09:10:37.167Z,14.42
2018-11-03T09:13:13.686Z,14.48
2018-11-03T09:15:49.533Z,14.61
2018-11-03T09:18:25.355Z,14.62
2018-11-03T09:21:00.863Z,14.57
2018-11-03T09:23:37.017Z,14.43
2018-11-03T09:26:13.931Z,14.40
2018-11-03T09:28:49.685Z,14.27
2018-11-03T09:31:25.395Z,14.38
2018-11-03T09:34:00.836Z,14.45
2018-11-03T09:36:37.210Z,14.24
2018-11-03T09:39:12.987Z,14.11
2018-11-03T09:41:49.092Z,14.23
2018-11-03T09:44:25.085Z,14.14
2018-11-03T09:47:00.586Z,14.33
2018-11-03T09:49:36.267Z,14.27
2018-11-03T09:52:12.060Z,14.39
2018-11-03T09:54:47.441Z,14.29
2018-11-03T09:57:23.237Z,14.25
2018-11-03T09:59:58.801Z,14.31
2018-11-03T10:02:34.507Z,14.30
2018-11-03T10:05:11.324Z,14.34
2018-11-03T10:07:47.041Z,14.22
2018-11-03T10:10:22.859Z,14.39
2018-11-03T10:12:59.442Z,14.29
2018-11-03T10:15:35.205Z,14.28
2018-11-03T10:18:10.776Z,14.28
2018-11-03T10:20:46.214Z,14.37
2018-11-03T10:23:22.170Z,14.53
2018-11-03T10:25:57.959Z,14.42
2018-11-03T10:28:33.822Z,14.47
2018-11-03T10:31:09.353Z,14.52
2018-11-03T10:33:45.008Z,14.40
2018-11-03T10:36:21.028Z,14.53
2018-11-03T10:38:56.678Z,14.50
2018-11-03T10:41:32.858Z,14.42
2018-11-03T10:44:08.557Z,14.42
2018-11-03T10:46:44.485Z,14.42
2018-11-03T10:49:20.110Z,14.54
2018-11-03T10:51:55.913Z,14.67
2018-11-03T10:54:31.964Z,14.48
2018-11-03T10:57:08.284Z,14.76
2018-11-03T10:59:44.456Z,14.91
2018-11-03T11:02:25.624Z,14.98
2018-11-03T11:05:06.754Z,14.83
2018-11-03T11:07:47.981Z,14.52
2018-11-03T11:10:29.232Z,14.59
2018-11-03T11:13:08.110Z,14.66
2018-11-03T11:15:43.693Z,14.34
2018-11-03T11:18:19.526Z,14.39
2018-11-03T11:20:55.200Z,14.47
2018-11-03T11:23:31.188Z,14.54
2018-11-03T11:26:07.278Z,14.55
2018-11-03T11:28:42.912Z,14.69
2018-11-03T11:31:20.794Z,14.76
2018-11-03T11:33:57.155Z,14.69
2018-11-03T11:36:32.737Z,14.80
2018-11-03T11:39:08.534Z,14.62
2018-11-03T11:41:44.325Z,14.87
2018-11-03T11:44:20.641Z,14.63
2018-11-03T11:46:56.242Z,14.64
2018-11-03T11:49:31.896Z,14.70
2018-11-03T11:52:07.642Z,14.87
2018-11-03T11:54:43.343Z,15.02
2018-11-03T11:57:19.098Z,15.13
2018-11-03T11:59:54.646Z,14.65
2018-11-03T12:02:30.467Z,13.50
2018-11-03T12:05:06.536Z,14.53
2018-11-03T12:07:42.144Z,14.79
2018-11-03T12:10:17.845Z,14.54
2018-11-03T12:12:53.703Z,14.26
2018-11-03T12:15:29.413Z,14.50
2018-11-03T12:18:05.234Z,14.01
2018-11-03T12:20:41.146Z,14.38
2018-11-03T12:23:16.882Z,14.12
2018-11-03T12:25:52.630Z,14.71
2018-11-03T12:28:28.171Z,14.30
2018-11-03T12:31:04.325Z,14.57
2018-11-03T12:33:40.107Z,14.84
2018-11-03T12:36:16.009Z,14.99
2018-11-03T12:38:51.380Z,14.90
2018-11-03T12:41:27.280Z,14.62
2018-11-03T12:44:03.385Z,14.64
2018-11-03T12:46:40.114Z,14.56
2018-11-03T12:49:15.912Z,14.34
2018-11-03T12:51:51.516Z,14.67
2018-11-03T12:54:27.249Z,14.70
2018-11-03T12:57:02.798Z,14.46
2018-11-03T12:59:38.428Z,14.41
2018-11-03T13:02:14.319Z,14.32
2018-11-03T13:04:49.932Z,14.42
2018-11-03T13:07:25.596Z,14.39
2018-11-03T13:10:01.534Z,14.50
2018-11-03T13:12:38.028Z,14.40
2018-11-03T13:15:14.462Z,14.36
2018-11-03T13:17:50.242Z,14.23
2018-11-03T13:20:25.764Z,14.39
2018-11-03T13:23:01.465Z,14.53
2018-11-03T13:25:37.134Z,14.47
2018-11-03T13:28:12.987Z,14.64
2018-11-03T13:30:48.485Z,14.67
2018-11-03T13:33:24.187Z,14.71
2018-11-03T13:35:59.711Z,14.63
2018-11-03T13:38:35.820Z,14.45
2018-11-03T13:41:11.371Z,14.17
2018-11-03T13:43:46.846Z,14.19
2018-11-03T13:46:22.676Z,14.40
2018-11-03T13:48:58.400Z,14.24
2018-11-03T13:51:34.143Z,14.19
2018-11-03T13:54:09.741Z,14.22
2018-11-03T13:56:45.549Z,14.22
2018-11-03T13:59:21.824Z,14.18
2018-11-03T14:01:57.828Z,14.10
2018-11-03T14:04:33.448Z,14.11
2018-11-03T14:07:09.000Z,14.05
2018-11-03T14:09:44.821Z,14.08
2018-11-03T14:12:20.450Z,14.03
2018-11-03T14:14:56.434Z,14.02
2018-11-03T14:17:32.193Z,13.98
2018-11-03T14:20:09.114Z,13.95
2018-11-03T14:22:46.360Z,13.93
2018-11-03T14:25:21.860Z,13.98
2018-11-03T14:27:57.500Z,14.17
2018-11-03T14:30:33.348Z,14.23
2018-11-03T14:33:09.065Z,14.17
2018-11-03T14:35:44.698Z,14.04
2018-11-03T14:38:20.733Z,14.09
2018-11-03T14:40:56.311Z,14.05
2018-11-03T14:43:31.922Z,14.18
2018-11-03T14:46:08.090Z,14.04
2018-11-03T14:48:43.768Z,14.07
2018-11-03T14:51:19.137Z,14.05
2018-11-03T14:53:55.316Z,14.13
2018-11-03T14:56:31.152Z,14.08
2018-11-03T14:59:06.909Z,14.17
2018-11-03T15:01:42.548Z,14.16
2018-11-03T15:04:18.093Z,14.24
2018-11-03T15:06:53.612Z,14.27
2018-11-03T15:09:29.178Z,14.35
2018-11-03T15:12:04.913Z,14.53
2018-11-03T15:14:40.670Z,14.53
2018-11-03T15:17:16.688Z,14.43
2018-11-03T15:19:52.208Z,14.46
2018-11-03T15:22:27.787Z,14.56
2018-11-03T15:25:03.845Z,14.50
2018-11-03T15:27:45.289Z,14.60
2018-11-03T15:30:21.528Z,14.62
2018-11-03T15:32:57.101Z,14.57
2018-11-03T15:35:32.771Z,14.45
2018-11-03T15:38:08.690Z,14.37
2018-11-03T15:40:44.228Z,14.34
2018-11-03T15:43:19.848Z,14.45
2018-11-03T15:45:55.291Z,14.25
2018-11-03T15:48:30.909Z,14.32
2018-11-03T15:51:06.782Z,14.38
2018-11-03T15:53:42.520Z,14.49
2018-11-03T15:56:18.520Z,14.34
2018-11-03T15:58:54.174Z,14.33
2018-11-03T16:01:29.844Z,14.29
2018-11-03T16:04:05.285Z,14.24
2018-11-03T16:06:40.958Z,14.27
2018-11-03T16:09:16.567Z,14.28
2018-11-03T16:11:52.166Z,14.38
2018-11-03T16:14:27.993Z,14.13
2018-11-03T16:17:03.491Z,14.05
2018-11-03T16:19:39.336Z,14.13
2018-11-03T16:22:15.458Z,14.25
2018-11-03T16:24:51.186Z,14.36
2018-11-03T16:27:26.680Z,14.53
2018-11-03T16:30:02.336Z,14.80
2018-11-03T16:32:38.159Z,14.80
2018-11-03T16:35:13.592Z,14.57
2018-11-03T16:37:49.100Z,14.44
2018-11-03T16:40:25.259Z,14.51
2018-11-03T16:43:01.172Z,14.63
2018-11-03T16:45:36.722Z,14.61
2018-11-03T16:48:12.445Z,14.35
2018-11-03T16:50:48.049Z,14.26
2018-11-03T16:53:23.619Z,14.38
2018-11-03T16:55:59.216Z,14.50
2018-11-03T16:58:34.923Z,14.54
2018-11-03T17:01:10.813Z,14.43
2018-11-03T17:03:46.200Z,14.10
2018-11-03T17:06:21.816Z,13.90
2018-11-03T17:08:57.709Z,13.78
2018-11-03T17:11:33.497Z,13.84
2018-11-03T17:14:09.201Z,13.78
2018-11-03T17:16:44.789Z,13.79
2018-11-03T17:19:20.358Z,13.85
2018-11-03T17:21:55.980Z,13.74
2018-11-03T17:24:31.661Z,13.76
2018-11-03T17:27:07.468Z,13.72
2018-11-03T17:29:43.152Z,13.67
2018-11-03T17:32:18.612Z,13.77
2018-11-03T17:34:54.033Z,13.76
2018-11-03T17:37:29.830Z,13.85
2018-11-03T17:40:06.504Z,13.93
2018-11-03T17:42:42.122Z,13.95
2018-11-03T17:45:17.622Z,13.97
2018-11-03T17:47:53.116Z,14.01
2018-11-03T17:50:28.882Z,13.86
2018-11-03T17:53:04.661Z,13.92
2018-11-03T17:55:40.548Z,13.99
2018-11-03T17:58:16.018Z,13.91
2018-11-03T18:00:52.261Z,14.06
2018-11-03T18:03:27.848Z,14.05
2018-11-03T18:06:03.553Z,14.14
2018-11-03T18:08:39.400Z,13.97
2018-11-03T18:11:15.857Z,13.95
2018-11-03T18:13:51.311Z,14.01
2018-11-03T18:16:27.729Z,14.01
2018-11-03T18:19:03.410Z,14.26
2018-11-03T18:21:38.905Z,14.22
2018-11-03T18:24:14.898Z,14.23
2018-11-03T18:26:50.628Z,14.23
2018-11-03T18:29:26.125Z,14.06
2018-11-03T18:32:01.818Z,13.74
2018-11-03T18:34:37.480Z,13.81
2018-11-03T18:37:15.529Z,13.71
2018-11-03T18:39:50.999Z,13.85
2018-11-03T18:42:27.010Z,13.94
2018-11-03T18:45:02.678Z,13.94
2018-11-03T18:47:38.394Z,14.18
2018-11-03T18:50:17.511Z,14.06
2018-11-03T18:52:53.489Z,13.96
2018-11-03T18:55:33.153Z,14.09
2018-11-03T18:58:10.790Z,14.17
2018-11-03T19:00:46.301Z,14.33
2018-11-03T19:03:22.187Z,14.29
2018-11-03T19:05:57.803Z,14.33
2018-11-03T19:08:33.433Z,14.12
2018-11-03T19:11:09.646Z,14.11
2018-11-03T19:13:45.575Z,14.16
2018-11-03T19:16:21.667Z,14.28
2018-11-03T19:18:58.076Z,14.44
2018-11-03T19:21:33.724Z,14.47
2018-11-03T19:24:09.574Z,14.43
2018-11-03T19:26:45.206Z,14.71
2018-11-03T19:29:20.833Z,14.75
2018-11-03T19:31:56.523Z,14.84
2018-11-03T19:34:32.196Z,14.98
2018-11-03T19:37:07.642Z,15.12
2018-11-03T19:39:43.401Z,15.28
2018-11-03T19:42:18.944Z,15.13
2018-11-03T19:44:54.370Z,15.52
2018-11-03T19:47:29.945Z,15.59
2018-11-03T19:50:06.457Z,15.53
2018-11-03T19:52:41.925Z,15.23
2018-11-03T19:55:28.691Z,14.95
2018-11-03T19:58:04.298Z,14.90
2018-11-03T20:00:39.841Z,14.96
2018-11-03T20:03:15.459Z,14.95
2018-11-03T20:05:51.335Z,15.13
2018-11-03T20:08:27.295Z,15.50
2018-11-03T20:11:02.942Z,15.77
2018-11-03T20:13:38.925Z,15.99
2018-11-03T20:16:15.785Z,16.12
2018-11-03T20:18:51.359Z,16.39
2018-11-03T20:21:26.880Z,16.42
2018-11-03T20:24:02.501Z,16.36
2018-11-03T20:26:37.929Z,16.34
2018-11-03T20:29:13.460Z,16.18
2018-11-03T20:31:49.104Z,16.21
2018-11-03T20:34:25.225Z,15.53
2018-11-03T20:37:00.941Z,15.92
2018-11-03T20:39:36.688Z,16.26
2018-11-03T20:42:12.382Z,16.42
2018-11-03T20:44:47.800Z,16.65
2018-11-03T20:47:23.498Z,16.85
2018-11-03T20:49:59.063Z,16.99
2018-11-03T20:52:34.681Z,17.05
2018-11-03T20:55:11.286Z,16.73
2018-11-03T20:57:49.083Z,16.60
2018-11-03T21:00:25.384Z,15.66
2018-11-03T21:03:01.001Z,16.34
2018-11-03T21:05:36.689Z,16.67
2018-11-03T21:08:12.279Z,16.56
2018-11-03T21:10:48.214Z,16.32
2018-11-03T21:13:23.777Z,16.08
2018-11-03T21:15:59.445Z,16.21
2018-11-03T21:18:34.869Z,15.89
2018-11-03T21:21:11.026Z,15.70
2018-11-03T21:23:46.924Z,15.17
2018-11-03T21:26:22.762Z,15.24
2018-11-03T21:28:58.692Z,15.07
2018-11-03T21:31:34.270Z,15.11
2018-11-03T21:34:10.080Z,15.26
2018-11-03T21:36:45.576Z,15.64
2018-11-03T21:39:21.209Z,15.65
2018-11-03T21:41:56.958Z,15.80
2018-11-03T21:44:33.648Z,15.72
2018-11-03T21:47:09.825Z,15.59
2018-11-03T21:49:46.051Z,15.34
2018-11-03T21:52:21.537Z,15.45
2018-11-03T21:54:57.274Z,15.57
2018-11-03T21:57:32.691Z,15.68
2018-11-03T22:00:10.344Z,16.12
2018-11-03T22:02:46.477Z,16.62
2018-11-03T22:05:28.058Z,16.95
2018-11-03T22:08:03.849Z,16.83
2018-11-03T22:10:39.836Z,16.57
2018-11-03T22:13:15.343Z,16.55
2018-11-03T22:15:51.982Z,15.94
2018-11-03T22:18:28.039Z,16.23
2018-11-03T22:21:03.398Z,16.39
2018-11-03T22:23:39.178Z,16.12
2018-11-03T22:26:15.074Z,16.24
2018-11-03T22:28:51.184Z,16.36
2018-11-03T22:31:27.046Z,16.36
2018-11-03T22:34:03.029Z,16.53
2018-11-03T22:36:38.664Z,16.42
2018-11-03T22:39:14.288Z,16.42
2018-11-03T22:41:52.702Z,16.48
2018-11-03T22:44:28.635Z,16.18
2018-11-03T22:47:04.435Z,16.28
2018-11-03T22:49:40.461Z,15.97
2018-11-03T22:52:16.384Z,16.29
2018-11-03T22:54:52.374Z,16.68
2018-11-03T22:57:29.354Z,16.43
2018-11-03T23:00:06.908Z,16.52
2018-11-03T23:02:44.316Z,16.82
2018-11-03T23:05:32.050Z,16.72
2018-11-03T23:08:07.962Z,16.63
2018-11-03T23:10:43.869Z,16.25
2018-11-03T23:13:21.966Z,16.34
2018-11-03T23:15:58.519Z,16.07
2018-11-03T23:18:34.103Z,15.95
2018-11-03T23:21:10.935Z,15.96
2018-11-03T23:23:47.242Z,15.93
2018-11-03T23:26:24.762Z,15.64
2018-11-03T23:29:00.716Z,15.28
2018-11-03T23:31:36.204Z,15.40
2018-11-03T23:34:12.870Z,15.60
2018-11-03T23:36:54.518Z,15.61
2018-11-03T23:39:31.643Z,16.02
2018-11-03T23:42:07.299Z,16.37
2018-11-03T23:44:43.099Z,16.50
2018-11-03T23:47:18.865Z,15.97
2018-11-03T23:49:54.421Z,16.24
2018-11-03T23:52:32.872Z,16.48
2018-11-03T23:55:08.573Z,16.61
2018-11-03T23:57:50.587Z,16.60
